»·PEaware :: N751LU KBLI-KCOE

N751LU :: KBLI-KCOE

FLIGHT INFORMATION

Flight Status: Arrived
Operator: Privately registered:
United States
More flights under this callsign
Pilot: Ewen S. (18928)
Aircraft: CANADAIR CL-600 CHALLENGER
(CL60)
More flights by this aircraft type
Origin: KBLI Bellingham Intl
United States
Destination: KCOE Coeur d'Alene
United States
More flights between these airports :: More routes between these airports
Route: KIENO6 DNHRT SNNDY T332 ROZTY COE
File this flight plan on PilotEdge
Remarks:
Altitude:
(Current/Filed)
33,000ft
Speed:
(Current/Filed)
460kts
Departed: 08-Jul-23 09:00 AM
Arrived: 08-Jul-23 09:42 AM
Distance/Time
Traveled:
236nm/0:42
Distance/Time
To Go:
Arrived

Flight Plot

Page will automatically refresh every two minutes.

Flight plan parsing failed; only flown route is shown


Map Options




Map Legend


Flown Route
Filed Route
Departure Airport
Arrival Airport
Navaid (VOR, NDB)
Fix

Horizontal Profiles

Position Reports

Time Latitude Longitude Heading Altitude Ground
Speed
08-Jul-23 08:45 48.792178 -122.532801 51 161ft 0kts
08-Jul-23 08:46 48.792178 -122.532801 51 161ft 0kts
08-Jul-23 08:47 48.792178 -122.532802 51 161ft 0kts
08-Jul-23 08:48 48.792178 -122.532802 51 161ft 0kts
08-Jul-23 08:49 48.792178 -122.532802 51 161ft 0kts
08-Jul-23 08:50 48.792178 -122.532802 51 161ft 0kts
08-Jul-23 08:51 48.792178 -122.532802 51 161ft 0kts
08-Jul-23 08:52 48.792178 -122.532802 51 161ft 0kts
08-Jul-23 08:53 48.792178 -122.532802 51 161ft 0kts
08-Jul-23 08:54 48.792178 -122.532801 51 161ft 0kts
08-Jul-23 08:55 48.792178 -122.532801 51 161ft 0kts
08-Jul-23 08:56 48.792399 -122.532803 328 161ft 6kts
08-Jul-23 08:57 48.795849 -122.535811 358 162ft 22kts
08-Jul-23 08:58 48.801781 -122.536207 296 166ft 15kts
08-Jul-23 08:59 48.783710 -122.537297 178 648ft 171kts
08-Jul-23 09:00 48.731652 -122.567117 205 4257ft 253kts
08-Jul-23 09:01 48.659548 -122.580436 186 9021ft 278kts
08-Jul-23 09:02 48.583345 -122.588862 155 13582ft 292kts
08-Jul-23 09:03 48.547773 -122.478051 102 17355ft 325kts
08-Jul-23 09:04 48.530501 -122.340634 103 20722ft 343kts
08-Jul-23 09:05 48.512021 -122.195505 103 23678ft 360kts
08-Jul-23 09:06 48.492541 -122.044398 103 26334ft 377kts
08-Jul-23 09:07 48.471931 -121.886384 102 28647ft 392kts
08-Jul-23 09:08 48.450261 -121.722198 102 30592ft 406kts
08-Jul-23 09:09 48.427669 -121.553063 102 32274ft 418kts
08-Jul-23 09:10 48.404174 -121.379338 102 33369ft 438kts
08-Jul-23 09:11 48.381186 -121.191090 93 33422ft 475kts
08-Jul-23 09:12 48.380598 -120.989686 91 33560ft 485kts
08-Jul-23 09:13 48.379899 -120.787086 91 33505ft 483kts
08-Jul-23 09:14 48.386550 -120.585372 86 33489ft 482kts
08-Jul-23 09:15 48.390726 -120.384053 92 33398ft 482kts
08-Jul-23 09:16 48.385074 -120.182563 93 33359ft 481kts
08-Jul-23 09:17 48.363085 -119.985137 103 33376ft 480kts
08-Jul-23 09:18 48.334661 -119.789741 103 33315ft 479kts
08-Jul-23 09:19 48.305859 -119.593946 102 33302ft 480kts
08-Jul-23 09:20 48.280047 -119.397364 100 33310ft 480kts
08-Jul-23 09:21 48.257020 -119.199903 100 33257ft 480kts
08-Jul-23 09:22 48.233829 -119.004275 100 32205ft 464kts
08-Jul-23 09:23 48.208365 -118.819362 103 29874ft 444kts
08-Jul-23 09:24 48.179806 -118.643876 103 27638ft 426kts
08-Jul-23 09:25 48.152061 -118.475148 103 25498ft 408kts
08-Jul-23 09:26 48.125264 -118.313798 104 23418ft 393kts
08-Jul-23 09:27 48.099426 -118.159657 104 21471ft 374kts
08-Jul-23 09:28 48.074569 -118.012663 104 19566ft 357kts
08-Jul-23 09:29 48.045040 -117.874282 109 17701ft 343kts
08-Jul-23 09:30 48.014570 -117.742204 109 15886ft 332kts
08-Jul-23 09:31 47.984536 -117.614095 108 14110ft 322kts
08-Jul-23 09:32 47.955579 -117.491394 108 12047ft 305kts
08-Jul-23 09:33 47.927868 -117.375105 108 9960ft 291kts
08-Jul-23 09:34 47.901826 -117.263039 108 7851ft 281kts
08-Jul-23 09:35 47.859410 -117.172795 128 7094ft 250kts
08-Jul-23 09:36 47.815888 -117.091719 127 5733ft 252kts
08-Jul-23 09:37 47.772967 -117.009427 126 4780ft 249kts
08-Jul-23 09:38 47.749564 -116.929653 72 3966ft 183kts
08-Jul-23 09:39 47.763631 -116.870573 68 2775ft 136kts
08-Jul-23 09:40 47.775719 -116.821522 69 2302ft 58kts
08-Jul-23 09:41 47.778668 -116.809754 43 2319ft 13kts
08-Jul-23 09:42 47.778823 -116.814959 247 2310ft 21kts
08-Jul-23 09:43 47.777012 -116.822450 248 2300ft 21kts
08-Jul-23 09:44 47.776667 -116.826449 66 2295ft 0kts

Navigation Log

Ident Type
Flight plan parsing failed, navigation log unavailable